Time;durP1;ratioP1;P1;durP2;ratioP2;P2;SDS_P1;SDS_P2;PMS_P1;PMS_P2;Temp;Humidity;BMP_temperature;BMP_pressure;BME280_temperature;BME280_humidity;BME280_pressure;Samples;Min_cycle;Max_cycle;Signal;HPM_P1;HPM_P2
2021/12/30 00:00:00;;;;;;;16.83;14.13;;;8.40;99.90;;;;;;5053013;28;20550;-57
2021/12/30 00:02:44;;;;;;;18.25;13.07;;;8.40;99.90;;;;;;5046928;28;20108;-58
2021/12/30 00:05:28;;;;;;;20.48;14.20;;;8.40;99.90;;;;;;5047599;28;20155;-55
2021/12/30 00:08:13;;;;;;;17.75;15.02;;;8.40;99.90;;;;;;5049413;28;20439;-56
2021/12/30 00:10:58;;;;;;;17.02;13.73;;;8.40;99.90;;;;;;5054445;28;20486;-57
2021/12/30 00:13:45;;;;;;;16.17;14.35;;;8.40;99.90;;;;;;5054954;28;20036;-57
2021/12/30 00:16:29;;;;;;;17.00;12.23;;;8.30;99.90;;;;;;5039044;28;20036;-57
2021/12/30 00:19:13;;;;;;;16.95;12.82;;;8.30;99.90;;;;;;5054108;28;20040;-59
2021/12/30 00:21:57;;;;;;;20.73;13.53;;;8.30;99.90;;;;;;5038293;28;20102;-59
2021/12/30 00:24:41;;;;;;;16.73;12.18;;;8.40;99.90;;;;;;5033834;28;20499;-58
2021/12/30 00:27:25;;;;;;;16.42;12.25;;;8.40;99.90;;;;;;5045341;28;20063;-58
2021/12/30 00:30:11;;;;;;;13.65;11.70;;;8.40;99.90;;;;;;5053365;28;20083;-59
2021/12/30 00:32:55;;;;;;;14.88;11.15;;;8.40;99.90;;;;;;5045295;28;20028;-59
2021/12/30 00:35:39;;;;;;;13.38;10.38;;;8.40;99.90;;;;;;5046953;28;20032;-59
2021/12/30 00:38:23;;;;;;;11.20;9.23;;;8.40;99.90;;;;;;5053268;28;20047;-60
2021/12/30 00:41:08;;;;;;;12.80;9.27;;;8.50;99.90;;;;;;5053299;28;20078;-56
2021/12/30 00:43:52;;;;;;;11.00;9.77;;;8.40;99.90;;;;;;5041534;28;20033;-60
2021/12/30 00:46:36;;;;;;;15.00;10.07;;;8.30;99.90;;;;;;5042762;28;20039;-59
2021/12/30 00:49:20;;;;;;;11.57;9.07;;;8.30;99.90;;;;;;5052304;28;20110;-58
2021/12/30 00:52:05;;;;;;;12.27;9.53;;;8.30;99.90;;;;;;5050645;28;20044;-59
2021/12/30 00:54:49;;;;;;;12.05;9.57;;;8.40;99.90;;;;;;5052301;28;20171;-59
2021/12/30 00:57:33;;;;;;;12.73;9.43;;;8.30;99.90;;;;;;5052523;28;20040;-59
2021/12/30 01:00:19;;;;;;;11.93;8.63;;;8.30;99.90;;;;;;5052540;28;20454;-58
2021/12/30 01:03:03;;;;;;;10.95;8.82;;;8.40;99.90;;;;;;5051663;28;20083;-56
2021/12/30 01:05:48;;;;;;;12.60;8.90;;;8.40;99.90;;;;;;5047340;28;20040;-59
2021/12/30 01:08:32;;;;;;;11.07;8.82;;;8.40;99.90;;;;;;5052111;28;20103;-58
2021/12/30 01:11:17;;;;;;;12.35;9.30;;;8.30;99.90;;;;;;5048949;28;20434;-59
2021/12/30 01:14:09;;;;;;;9.73;8.23;;;8.30;99.90;;;;;;5059790;28;20048;-57
2021/12/30 01:16:57;;;;;;;10.30;8.02;;;8.40;99.90;;;;;;5051877;28;20564;-58
2021/12/30 01:19:42;;;;;;;9.88;8.02;;;8.40;99.90;;;;;;5052592;28;20102;-58
2021/12/30 01:22:27;;;;;;;;;;;8.40;99.90;;;;;;5052769;28;20067;-58
2021/12/30 01:25:11;;;;;;;9.65;7.47;;;8.40;99.90;;;;;;5051872;28;20450;-57
2021/12/30 01:27:56;;;;;;;8.65;7.75;;;8.50;99.90;;;;;;5052601;28;20039;-58
2021/12/30 01:30:40;;;;;;;10.47;8.00;;;8.50;99.90;;;;;;5052673;28;20052;-58
2021/12/30 01:33:24;;;;;;;8.95;7.53;;;8.50;99.90;;;;;;5051401;28;20075;-54
2021/12/30 01:36:08;;;;;;;9.82;7.65;;;8.50;99.90;;;;;;5052821;28;20059;-59
2021/12/30 01:38:54;;;;;;;8.85;7.78;;;8.50;99.90;;;;;;5052706;28;20142;-58
2021/12/30 01:41:40;;;;;;;8.75;7.85;;;8.60;99.90;;;;;;5050398;28;20519;-58
2021/12/30 01:44:24;;;;;;;8.23;7.43;;;8.70;99.90;;;;;;5052593;28;20067;-57
2021/12/30 01:47:09;;;;;;;8.45;7.18;;;8.70;99.90;;;;;;5052361;28;20044;-57
2021/12/30 01:49:54;;;;;;;9.00;7.70;;;8.70;99.90;;;;;;5053049;28;20132;-59
2021/12/30 01:52:38;;;;;;;8.15;7.35;;;8.70;99.90;;;;;;5033933;28;20048;-56
2021/12/30 01:55:23;;;;;;;13.05;8.07;;;8.70;99.90;;;;;;5035586;28;20084;-58
2021/12/30 01:58:07;;;;;;;10.18;8.00;;;8.70;99.90;;;;;;5051389;28;20538;-59
2021/12/30 02:00:52;;;;;;;;;;;8.60;99.90;;;;;;5052428;28;20048;-59
2021/12/30 02:03:35;;;;;;;7.82;6.93;;;8.70;99.90;;;;;;5051991;28;19917;-58
2021/12/30 02:06:20;;;;;;;8.43;7.50;;;8.90;99.90;;;;;;5052076;28;20166;-58
2021/12/30 02:09:04;;;;;;;11.75;7.18;;;8.90;99.90;;;;;;5051820;28;20442;-59
2021/12/30 02:11:48;;;;;;;7.90;7.10;;;8.90;99.90;;;;;;5052171;28;20060;-58
2021/12/30 02:14:34;;;;;;;7.55;6.80;;;8.90;99.90;;;;;;5051643;28;20317;-59
2021/12/30 02:17:18;;;;;;;7.10;6.40;;;8.90;99.90;;;;;;5052132;28;20598;-58
2021/12/30 02:20:06;;;;;;;8.50;7.40;;;9.00;99.90;;;;;;5051845;28;20059;-58
2021/12/30 02:22:51;;;;;;;7.47;6.68;;;9.00;99.90;;;;;;5051773;28;20044;-59
2021/12/30 02:25:36;;;;;;;7.53;6.70;;;9.00;99.90;;;;;;5051701;28;20048;-57
2021/12/30 02:28:23;;;;;;;;;;;9.00;99.90;;;;;;5052211;28;20036;-57
2021/12/30 02:31:14;;;;;;;7.32;6.63;;;9.00;99.90;;;;;;5051823;28;19915;-57
2021/12/30 02:34:00;;;;;;;8.15;7.30;;;9.00;99.90;;;;;;5051350;28;20032;-57
2021/12/30 02:36:44;;;;;;;;;;;9.00;99.90;;;;;;5052226;28;20040;-56
2021/12/30 02:39:29;;;;;;;8.35;7.03;;;9.00;99.90;;;;;;5051548;28;20332;-56
2021/12/30 02:42:13;;;;;;;8.50;7.47;;;9.00;99.90;;;;;;5051562;28;20393;-57
2021/12/30 02:44:57;;;;;;;9.23;7.60;;;9.00;99.90;;;;;;5051782;28;20535;-58
2021/12/30 02:47:42;;;;;;;11.87;8.03;;;9.00;99.90;;;;;;5050303;28;20089;-57
2021/12/30 02:50:26;;;;;;;10.93;8.15;;;9.10;99.90;;;;;;5051640;28;20751;-58
2021/12/30 02:53:12;;;;;;;9.73;8.70;;;9.20;99.90;;;;;;5056052;28;20097;-59
2021/12/30 02:55:56;;;;;;;12.82;9.60;;;9.20;99.90;;;;;;5057363;28;20554;-58
2021/12/30 02:58:41;;;;;;;10.10;8.73;;;9.20;99.90;;;;;;5057958;28;20075;-59
2021/12/30 03:01:30;;;;;;;10.50;9.40;;;9.30;99.90;;;;;;5057451;28;20039;-55
2021/12/30 03:04:15;;;;;;;11.90;9.77;;;9.40;99.90;;;;;;5055900;28;20291;-57
2021/12/30 03:06:59;;;;;;;14.53;11.27;;;9.40;99.90;;;;;;5056677;28;20036;-59
2021/12/30 03:09:47;;;;;;;12.75;10.57;;;9.40;99.90;;;;;;5056280;28;20282;-58
2021/12/30 03:12:31;;;;;;;12.10;10.80;;;9.40;99.90;;;;;;5056681;28;20067;-58
2021/12/30 03:15:15;;;;;;;12.57;10.48;;;9.40;99.90;;;;;;5057817;28;20082;-58
2021/12/30 03:17:59;;;;;;;14.90;11.27;;;9.50;99.90;;;;;;5059230;28;20546;-58
2021/12/30 03:20:43;;;;;;;16.70;11.65;;;9.50;99.90;;;;;;5057110;28;20048;-57
2021/12/30 03:23:27;;;;;;;15.53;12.63;;;9.50;99.90;;;;;;5056603;28;20121;-57
2021/12/30 03:26:12;;;;;;;14.25;11.73;;;9.40;99.90;;;;;;5057051;28;20443;-56
2021/12/30 03:28:56;;;;;;;15.90;12.07;;;9.50;99.90;;;;;;5057090;28;20024;-56
2021/12/30 03:31:41;;;;;;;15.63;11.30;;;9.50;99.90;;;;;;5057379;28;20096;-58
2021/12/30 03:34:25;;;;;;;16.80;11.48;;;9.40;99.90;;;;;;5056784;28;20654;-59
2021/12/30 03:37:09;;;;;;;13.13;11.20;;;9.50;99.90;;;;;;5057267;28;20039;-58
2021/12/30 03:39:53;;;;;;;12.55;11.25;;;9.50;99.90;;;;;;5056497;28;20450;-58
2021/12/30 03:42:37;;;;;;;13.93;11.10;;;9.50;99.90;;;;;;5055843;28;20090;-58
2021/12/30 03:45:22;;;;;;;12.00;9.98;;;9.50;99.90;;;;;;5055579;28;20313;-58
2021/12/30 03:48:06;;;;;;;13.95;10.48;;;9.60;99.90;;;;;;5055516;28;20044;-55
2021/12/30 03:50:52;;;;;;;12.23;10.57;;;9.60;99.90;;;;;;5057102;28;20447;-58
2021/12/30 03:53:39;;;;;;;15.45;11.07;;;9.70;99.90;;;;;;5056329;28;20121;-58
2021/12/30 03:56:27;;;;;;;13.88;10.57;;;9.60;99.90;;;;;;5056144;28;20036;-60
2021/12/30 03:59:11;;;;;;;12.80;10.55;;;9.70;99.90;;;;;;5069515;28;20072;-57
2021/12/30 04:01:55;;;;;;;15.73;10.73;;;9.70;99.90;;;;;;5057130;28;20090;-58
2021/12/30 04:04:39;;;;;;;12.57;10.35;;;9.70;99.90;;;;;;5055318;28;20673;-58
2021/12/30 04:07:23;;;;;;;13.17;10.20;;;9.80;99.90;;;;;;5057285;28;20248;-58
2021/12/30 04:10:12;;;;;;;13.97;10.47;;;9.80;99.90;;;;;;5055894;28;20410;-58
2021/12/30 04:12:57;;;;;;;13.93;10.73;;;9.90;99.90;;;;;;5056306;28;20450;-55
2021/12/30 04:15:41;;;;;;;15.00;10.10;;;9.80;99.90;;;;;;5055311;28;20090;-57
2021/12/30 04:18:26;;;;;;;13.97;10.50;;;9.90;99.90;;;;;;5055507;28;20048;-59
2021/12/30 04:21:10;;;;;;;;;;;9.70;99.90;;;;;;5055749;28;20341;-58
2021/12/30 04:23:54;;;;;;;14.00;9.80;;;9.80;99.90;;;;;;5042042;28;19984;-57
2021/12/30 04:26:38;;;;;;;11.82;9.18;;;9.80;99.90;;;;;;5056543;28;20541;-59
2021/12/30 04:29:22;;;;;;;15.60;9.37;;;9.90;99.90;;;;;;5055677;28;20090;-56
2021/12/30 04:32:07;;;;;;;14.30;10.20;;;9.90;99.90;;;;;;5055932;28;20115;-58
2021/12/30 04:34:51;;;;;;;16.02;9.95;;;9.90;99.90;;;;;;5055480;28;20051;-57
2021/12/30 04:37:35;;;;;;;14.17;9.97;;;9.90;99.90;;;;;;5055706;28;20155;-55
2021/12/30 04:40:20;;;;;;;14.05;9.52;;;9.90;99.90;;;;;;5055302;28;20119;-55
2021/12/30 04:43:04;;;;;;;13.32;8.93;;;10.00;99.90;;;;;;5055512;28;20064;-55
2021/12/30 04:45:48;;;;;;;16.17;9.47;;;9.90;99.90;;;;;;5035609;28;20040;-58
2021/12/30 04:48:32;;;;;;;12.23;8.10;;;10.00;99.90;;;;;;5037043;28;20048;-59
2021/12/30 04:51:17;;;;;;;11.55;8.57;;;10.10;99.90;;;;;;5054795;28;20032;-54
2021/12/30 04:54:02;;;;;;;14.10;9.32;;;10.10;99.90;;;;;;5055950;28;20163;-55
2021/12/30 04:56:46;;;;;;;13.88;8.50;;;10.20;99.90;;;;;;5056330;28;20035;-55
2021/12/30 04:59:31;;;;;;;13.48;8.35;;;10.20;99.90;;;;;;5055991;28;20075;-59
2021/12/30 05:02:15;;;;;;;13.32;8.98;;;10.20;99.90;;;;;;5055806;28;20055;-58
2021/12/30 05:04:59;;;;;;;17.33;9.18;;;10.20;99.90;;;;;;5049007;28;20027;-59
2021/12/30 05:07:43;;;;;;;14.75;9.00;;;10.20;99.90;;;;;;5054700;28;20107;-60
2021/12/30 05:10:27;;;;;;;16.83;10.20;;;10.20;99.90;;;;;;5055777;28;20044;-55
2021/12/30 05:13:12;;;;;;;14.82;8.68;;;10.30;99.90;;;;;;5055548;28;20145;-56
2021/12/30 05:15:56;;;;;;;;;;;10.20;99.90;;;;;;5055405;28;20105;-59
2021/12/30 05:18:41;;;;;;;13.20;8.65;;;10.20;99.90;;;;;;5055529;28;19916;-58
2021/12/30 05:21:25;;;;;;;12.15;8.73;;;10.20;99.90;;;;;;5053339;28;20047;-59
2021/12/30 05:24:09;;;;;;;16.80;8.65;;;10.20;99.90;;;;;;5049460;28;20032;-58
2021/12/30 05:26:53;;;;;;;10.50;8.47;;;10.30;99.90;;;;;;5054271;28;20508;-59
2021/12/30 05:29:37;;;;;;;12.00;8.18;;;10.30;99.90;;;;;;5067903;28;20071;-57
2021/12/30 05:32:21;;;;;;;12.07;8.35;;;10.30;99.90;;;;;;5054300;28;20047;-59
2021/12/30 05:35:07;;;;;;;13.90;8.68;;;10.40;99.90;;;;;;5054029;28;20044;-58
2021/12/30 05:37:52;;;;;;;14.55;9.20;;;10.40;99.90;;;;;;5054502;28;20047;-60
2021/12/30 05:40:36;;;;;;;16.47;9.07;;;10.30;99.90;;;;;;5053741;28;20079;-59
2021/12/30 05:43:20;;;;;;;14.00;8.70;;;10.30;99.90;;;;;;5054261;28;20287;-56
2021/12/30 05:46:05;;;;;;;15.23;9.85;;;10.30;99.90;;;;;;5054679;28;20094;-60
2021/12/30 05:48:50;;;;;;;14.35;9.60;;;10.30;99.90;;;;;;5054556;28;20116;-59
2021/12/30 05:51:34;;;;;;;18.13;9.13;;;10.30;99.90;;;;;;5052244;28;20039;-59
2021/12/30 05:54:18;;;;;;;14.40;9.45;;;10.20;99.90;;;;;;5054034;28;20117;-59
2021/12/30 05:57:02;;;;;;;15.07;9.13;;;10.20;99.90;;;;;;5050222;28;20116;-56
2021/12/30 05:59:46;;;;;;;14.15;8.98;;;10.30;99.90;;;;;;5053720;28;20043;-57
2021/12/30 06:02:31;;;;;;;11.17;8.07;;;10.30;99.90;;;;;;5054154;28;20134;-57
2021/12/30 06:05:15;;;;;;;13.15;8.68;;;10.30;99.90;;;;;;5053017;28;20087;-58
2021/12/30 06:07:59;;;;;;;11.30;9.20;;;10.30;99.90;;;;;;5048397;28;20432;-56
2021/12/30 06:10:43;;;;;;;9.85;7.55;;;10.20;99.90;;;;;;5053715;28;20044;-58
2021/12/30 06:13:27;;;;;;;11.75;7.93;;;10.30;99.90;;;;;;5052939;28;20518;-59
2021/12/30 06:16:11;;;;;;;10.63;8.00;;;10.30;99.90;;;;;;5052327;28;20040;-60
2021/12/30 06:18:57;;;;;;;12.40;8.50;;;10.30;99.90;;;;;;5046861;28;20068;-58
2021/12/30 06:21:41;;;;;;;13.43;8.68;;;10.30;99.90;;;;;;5052431;28;20058;-58
2021/12/30 06:24:25;;;;;;;15.55;8.20;;;10.30;99.90;;;;;;5053583;28;20048;-60
2021/12/30 06:27:10;;;;;;;18.07;9.03;;;10.30;99.90;;;;;;5049209;28;20048;-59
2021/12/30 06:29:54;;;;;;;13.93;8.82;;;10.30;99.90;;;;;;5052687;28;20491;-59
2021/12/30 06:32:39;;;;;;;11.65;7.28;;;10.30;99.90;;;;;;5052614;28;20036;-60
2021/12/30 06:35:23;;;;;;;15.00;8.25;;;10.40;99.90;;;;;;5049461;28;20103;-57
2021/12/30 06:38:07;;;;;;;13.50;8.20;;;10.30;99.90;;;;;;5053691;28;20060;-58
2021/12/30 06:40:51;;;;;;;13.70;7.90;;;10.40;99.90;;;;;;5053304;28;20111;-59
2021/12/30 06:43:35;;;;;;;16.95;8.35;;;10.40;99.90;;;;;;5052803;28;20108;-59
2021/12/30 06:46:21;;;;;;;12.75;8.00;;;10.40;99.90;;;;;;5052421;28;20037;-58
2021/12/30 06:49:09;;;;;;;18.17;9.57;;;10.40;99.90;;;;;;5051030;28;20132;-58
2021/12/30 06:51:53;;;;;;;15.93;8.57;;;10.40;99.90;;;;;;5052706;28;20037;-61
2021/12/30 06:54:38;;;;;;;17.50;8.85;;;10.40;99.90;;;;;;5045151;28;20044;-59
2021/12/30 06:57:22;;;;;;;14.82;8.55;;;10.40;99.90;;;;;;5053385;28;20558;-58
2021/12/30 07:00:11;;;;;;;15.30;8.32;;;10.40;99.90;;;;;;5053884;28;20440;-57
2021/12/30 07:02:55;;;;;;;13.00;7.80;;;10.50;99.90;;;;;;5059505;28;20023;-57
2021/12/30 07:05:39;;;;;;;18.92;9.23;;;10.50;99.90;;;;;;5057356;28;20519;-60
2021/12/30 07:08:24;;;;;;;26.17;17.38;;;10.50;99.90;;;;;;5055490;28;20090;-58
2021/12/30 07:11:07;;;;;;;18.45;10.52;;;10.40;99.90;;;;;;5049886;28;20091;-56
2021/12/30 07:13:51;;;;;;;17.53;9.07;;;10.40;99.90;;;;;;5051631;28;20405;-58
2021/12/30 07:16:35;;;;;;;16.77;8.60;;;10.40;99.90;;;;;;5049879;28;20294;-59
2021/12/30 07:19:20;;;;;;;15.07;8.63;;;10.30;99.90;;;;;;5050147;28;20044;-58
2021/12/30 07:22:05;;;;;;;13.83;8.17;;;10.40;99.90;;;;;;5038406;28;20028;-57
2021/12/30 07:24:49;;;;;;;13.18;8.60;;;10.40;99.90;;;;;;5052246;28;20051;-58
2021/12/30 07:27:33;;;;;;;13.57;9.95;;;10.40;99.90;;;;;;5053114;28;20032;-61
2021/12/30 07:30:20;;;;;;;14.45;8.63;;;10.50;99.90;;;;;;5053242;28;20440;-61
2021/12/30 07:33:06;;;;;;;14.55;9.05;;;10.50;99.90;;;;;;5051584;28;20079;-59
2021/12/30 07:35:50;;;;;;;15.95;9.35;;;10.50;99.90;;;;;;5051278;28;20522;-57
2021/12/30 07:38:34;;;;;;;16.55;8.63;;;10.50;99.90;;;;;;5052805;28;20408;-58
2021/12/30 07:41:19;;;;;;;20.35;9.90;;;10.50;99.90;;;;;;5055886;28;20108;-60
2021/12/30 07:44:03;;;;;;;20.23;9.00;;;10.40;99.90;;;;;;5056464;28;20044;-58
2021/12/30 07:46:48;;;;;;;18.60;9.10;;;10.50;99.90;;;;;;5056748;28;20063;-59
2021/12/30 07:49:35;;;;;;;16.60;9.20;;;10.40;99.90;;;;;;5055247;28;20082;-59
2021/12/30 07:52:19;;;;;;;23.30;10.40;;;10.40;99.90;;;;;;5055878;28;20091;-59
2021/12/30 07:55:08;;;;;;;26.87;10.60;;;10.40;99.90;;;;;;5056093;28;20047;-57
2021/12/30 07:57:55;;;;;;;18.48;9.68;;;10.50;99.90;;;;;;5056166;28;20044;-59
2021/12/30 08:00:39;;;;;;;18.92;10.20;;;10.50;99.90;;;;;;5055391;28;20040;-58
2021/12/30 08:03:24;;;;;;;19.00;9.03;;;10.60;99.90;;;;;;5055811;28;20550;-58
2021/12/30 08:06:08;;;;;;;18.33;10.35;;;10.60;99.90;;;;;;5056397;28;20400;-58
2021/12/30 08:08:52;;;;;;;20.10;9.43;;;10.50;99.90;;;;;;5056167;28;20396;-58
2021/12/30 08:11:36;;;;;;;21.43;9.73;;;10.50;99.90;;;;;;5056195;28;20040;-59
2021/12/30 08:14:20;;;;;;;18.60;9.30;;;10.60;99.90;;;;;;5056368;28;20054;-59
2021/12/30 08:17:05;;;;;;;23.87;9.60;;;10.60;99.90;;;;;;5054770;28;20086;-59
2021/12/30 08:19:49;;;;;;;14.68;8.50;;;10.60;99.90;;;;;;5055834;28;20070;-60
2021/12/30 08:22:34;;;;;;;22.50;8.95;;;10.70;99.90;;;;;;5034849;28;20714;-59
2021/12/30 08:25:20;;;;;;;22.05;8.98;;;10.70;99.90;;;;;;5038528;28;20024;-59
2021/12/30 08:28:04;;;;;;;17.92;8.80;;;10.70;99.90;;;;;;5055563;28;20067;-60
2021/12/30 08:30:48;;;;;;;20.95;8.82;;;10.80;99.90;;;;;;5054514;28;20024;-56
2021/12/30 08:33:33;;;;;;;16.70;8.30;;;10.90;99.90;;;;;;5055610;28;20503;-59
2021/12/30 08:36:17;;;;;;;21.77;8.57;;;10.80;99.90;;;;;;5055197;28;20044;-57
2021/12/30 08:39:02;;;;;;;19.07;9.23;;;10.90;99.90;;;;;;5055808;28;20167;-59
2021/12/30 08:41:46;;;;;;;;;;;11.00;99.90;;;;;;5055642;28;20848;-57
2021/12/30 08:44:31;;;;;;;22.77;9.05;;;11.00;99.90;;;;;;5054568;28;19962;-60
2021/12/30 08:47:15;;;;;;;;;;;10.80;99.90;;;;;;5054607;28;20040;-59
2021/12/30 08:50:00;;;;;;;17.75;8.18;;;10.90;99.90;;;;;;5054205;28;19911;-60
2021/12/30 08:52:45;;;;;;;;;;;11.00;99.90;;;;;;5054559;28;20028;-60
2021/12/30 08:55:30;;;;;;;22.52;8.43;;;11.00;99.90;;;;;;5054601;28;19984;-59
2021/12/30 08:58:13;;;;;;;17.17;7.00;;;11.10;99.90;;;;;;5055142;28;20512;-61
2021/12/30 09:00:58;;;;;;;23.33;7.97;;;11.10;99.90;;;;;;5054003;28;20044;-59
2021/12/30 09:03:42;;;;;;;25.70;7.90;;;11.20;99.90;;;;;;5053379;28;20162;-58
2021/12/30 09:06:26;;;;;;;14.25;7.57;;;11.10;99.90;;;;;;5054291;28;20345;-58
2021/12/30 09:09:10;;;;;;;15.00;6.37;;;11.20;99.90;;;;;;5054300;28;20036;-62
2021/12/30 09:11:55;;;;;;;11.60;7.00;;;11.30;99.90;;;;;;5055121;28;20091;-57
2021/12/30 09:14:39;;;;;;;16.80;6.85;;;11.20;99.90;;;;;;5054152;28;20083;-60
2021/12/30 09:17:23;;;;;;;23.55;6.75;;;11.30;99.90;;;;;;5054337;28;20511;-59
2021/12/30 09:20:09;;;;;;;16.33;6.35;;;11.30;99.90;;;;;;5054036;28;20117;-62
2021/12/30 09:22:55;;;;;;;16.45;6.53;;;11.30;99.90;;;;;;5052983;28;20585;-59
2021/12/30 09:25:40;;;;;;;18.25;6.57;;;11.40;99.90;;;;;;5052318;28;20071;-61
2021/12/30 09:28:24;;;;;;;14.10;6.20;;;11.40;99.90;;;;;;5054081;28;20036;-58
2021/12/30 09:31:08;;;;;;;19.33;7.80;;;11.40;99.90;;;;;;5054230;28;20399;-61
2021/12/30 09:33:52;;;;;;;13.87;5.53;;;11.50;99.90;;;;;;5052799;28;20079;-62
2021/12/30 09:36:37;;;;;;;12.53;5.57;;;11.50;99.90;;;;;;5052383;28;20056;-61
2021/12/30 09:39:21;;;;;;;19.13;7.15;;;11.50;99.90;;;;;;5053698;28;20044;-58
2021/12/30 09:42:06;;;;;;;16.20;5.57;;;11.60;99.90;;;;;;5051976;28;20036;-58
2021/12/30 09:44:51;;;;;;;12.63;5.22;;;11.60;99.90;;;;;;5038911;28;20501;-58
2021/12/30 09:47:36;;;;;;;13.15;4.72;;;11.60;99.90;;;;;;5053891;28;20044;-61
2021/12/30 09:50:24;;;;;;;14.25;5.45;;;11.70;99.90;;;;;;5053828;28;20047;-59
2021/12/30 09:53:09;;;;;;;15.45;4.55;;;11.70;99.90;;;;;;5054105;28;20083;-61
2021/12/30 09:55:59;;;;;;;15.00;5.07;;;11.70;99.90;;;;;;5054067;28;20035;-59
2021/12/30 09:58:43;;;;;;;13.50;5.20;;;11.70;99.90;;;;;;5052453;28;20056;-59
2021/12/30 10:01:28;;;;;;;9.70;4.65;;;11.70;99.90;;;;;;5052513;28;20036;-61
2021/12/30 10:04:12;;;;;;;11.38;4.63;;;11.80;99.90;;;;;;5052807;28;20602;-59
2021/12/30 10:06:58;;;;;;;13.55;5.20;;;11.80;99.90;;;;;;5053529;28;20074;-60
2021/12/30 10:09:53;;;;;;;15.63;4.93;;;11.80;99.90;;;;;;5053252;28;20032;-59
2021/12/30 10:12:44;;;;;;;11.70;4.82;;;11.90;99.90;;;;;;5053005;28;20036;-58
2021/12/30 10:15:40;;;;;;;10.73;4.85;;;12.00;99.90;;;;;;5053065;28;20044;-57
2021/12/30 10:18:40;;;;;;;15.75;5.55;;;12.00;99.90;;;;;;5053089;28;20071;-57
2021/12/30 10:21:31;;;;;;;10.75;4.65;;;12.00;99.90;;;;;;5052810;28;20048;-63
2021/12/30 10:24:17;;;;;;;11.40;5.18;;;11.90;99.90;;;;;;5052929;28;20423;-61
2021/12/30 10:27:02;;;;;;;13.27;5.65;;;11.90;99.90;;;;;;5053467;28;20769;-58
2021/12/30 10:29:48;;;;;;;14.50;5.03;;;11.90;99.90;;;;;;5053392;28;20052;-59
2021/12/30 10:32:32;;;;;;;10.55;5.05;;;11.90;99.90;;;;;;5053103;28;20116;-61
2021/12/30 10:35:16;;;;;;;14.25;5.38;;;11.90;99.90;;;;;;5033315;28;20075;-58
2021/12/30 10:38:08;;;;;;;11.95;4.45;;;12.00;99.90;;;;;;5037444;28;20048;-57
2021/12/30 10:40:53;;;;;;;8.40;4.80;;;12.00;99.90;;;;;;5053567;28;20041;-60
2021/12/30 10:43:45;;;;;;;9.45;4.30;;;12.00;99.90;;;;;;5052721;28;20028;-56
2021/12/30 10:46:30;;;;;;;8.25;4.10;;;12.00;99.90;;;;;;5054112;28;20032;-59
2021/12/30 10:49:24;;;;;;;7.38;4.22;;;12.00;99.90;;;;;;5053845;28;20060;-59
2021/12/30 10:52:11;;;;;;;12.33;4.10;;;12.10;99.90;;;;;;5052642;28;20036;-57
2021/12/30 10:54:57;;;;;;;10.95;4.20;;;12.20;99.90;;;;;;5054212;28;20056;-59
2021/12/30 10:57:41;;;;;;;9.23;3.72;;;12.20;99.90;;;;;;5051796;28;20051;-59
2021/12/30 11:00:31;;;;;;;10.40;4.18;;;12.20;99.90;;;;;;5052714;28;20439;-58
2021/12/30 11:03:24;;;;;;;9.88;4.60;;;12.10;99.90;;;;;;5046102;28;20043;-57
2021/12/30 11:06:19;;;;;;;11.63;4.03;;;12.10;99.90;;;;;;5039288;28;20028;-59
2021/12/30 11:09:09;;;;;;;10.52;4.03;;;12.10;99.90;;;;;;5052354;28;20027;-60
2021/12/30 11:11:58;;;;;;;12.55;4.95;;;12.10;99.90;;;;;;5053603;28;20099;-57
2021/12/30 11:14:43;;;;;;;8.50;4.50;;;12.10;99.90;;;;;;5057822;28;20068;-58
2021/12/30 11:17:35;;;;;;;8.57;4.22;;;12.10;99.90;;;;;;5058366;28;20032;-60
2021/12/30 11:20:23;;;;;;;6.15;3.10;;;12.10;99.90;;;;;;5057806;28;20112;-57
2021/12/30 11:23:18;;;;;;;6.63;3.92;;;12.10;99.90;;;;;;5057434;28;20095;-59
2021/12/30 11:26:10;;;;;;;;;;;12.10;99.90;;;;;;5044079;28;20044;-59
2021/12/30 11:28:59;;;;;;;8.23;3.58;;;12.10;99.90;;;;;;5057357;28;20449;-60
2021/12/30 11:31:43;;;;;;;;;;;12.20;99.90;;;;;;5057980;28;20080;-59
2021/12/30 11:34:29;;;;;;;7.85;3.90;;;12.30;99.90;;;;;;5055238;28;19923;-60
2021/12/30 11:37:14;;;;;;;5.32;3.38;;;12.30;99.90;;;;;;5036426;28;20091;-59
2021/12/30 11:40:01;;;;;;;6.78;3.65;;;12.30;99.90;;;;;;5039426;28;20542;-63
2021/12/30 11:42:48;;;;;;;8.13;3.80;;;12.40;99.90;;;;;;5056456;28;20080;-60
2021/12/30 11:45:42;;;;;;;4.90;2.90;;;12.50;99.90;;;;;;5055781;28;20158;-59
2021/12/30 11:48:28;;;;;;;7.00;3.38;;;12.50;99.90;;;;;;5058076;28;20059;-59
2021/12/30 11:51:15;;;;;;;5.03;3.05;;;12.50;99.90;;;;;;5056132;28;20044;-59
2021/12/30 11:54:37;;;;;;;7.40;3.35;;;12.60;99.90;;;;;;5057071;28;20035;-61
2021/12/30 11:57:34;;;;;;;6.00;2.92;;;12.60;99.90;;;;;;5039867;28;20117;-54
2021/12/30 12:00:36;;;;;;;6.05;3.33;;;12.70;99.90;;;;;;5052989;28;20032;-58
2021/12/30 12:03:34;;;;;;;4.80;2.70;;;12.70;99.90;;;;;;5050130;28;20064;-59
2021/12/30 12:06:24;;;;;;;3.60;2.45;;;12.70;99.90;;;;;;5056353;28;20112;-61
2021/12/30 12:09:22;;;;;;;4.40;2.58;;;12.80;99.90;;;;;;5056283;28;20036;-62
2021/12/30 12:12:11;;;;;;;4.00;2.50;;;12.80;99.90;;;;;;5070326;28;20036;-56
2021/12/30 12:14:59;;;;;;;4.20;2.20;;;12.90;99.90;;;;;;5049157;28;20068;-59
2021/12/30 12:17:45;;;;;;;2.83;2.40;;;12.90;99.90;;;;;;5039581;28;20190;-59
2021/12/30 12:20:34;;;;;;;4.38;2.60;;;13.10;99.90;;;;;;5056755;28;20051;-61
2021/12/30 12:23:36;;;;;;;3.75;2.47;;;13.00;99.90;;;;;;5055090;28;20095;-61
2021/12/30 12:26:22;;;;;;;3.60;2.60;;;13.10;99.90;;;;;;5054941;28;20087;-58
2021/12/30 12:29:35;;;;;;;3.53;2.20;;;13.10;99.90;;;;;;5054484;28;20044;-58
2021/12/30 12:32:31;;;;;;;5.75;3.17;;;13.20;99.90;;;;;;5035215;28;20475;-61
2021/12/30 12:35:18;;;;;;;4.93;2.85;;;13.30;99.90;;;;;;5055237;28;20079;-60
2021/12/30 12:38:06;;;;;;;3.22;2.38;;;13.30;99.90;;;;;;5055793;28;20040;-60
2021/12/30 12:40:54;;;;;;;2.90;2.30;;;13.30;99.90;;;;;;5054980;28;20032;-62
2021/12/30 12:43:39;;;;;;;3.22;2.55;;;13.30;99.90;;;;;;5054115;28;20067;-63
2021/12/30 12:46:45;;;;;;;4.20;2.53;;;13.50;99.90;;;;;;5055191;28;20086;-63
2021/12/30 12:49:32;;;;;;;2.50;2.30;;;13.50;99.90;;;;;;5035590;28;20059;-57
2021/12/30 12:52:16;;;;;;;3.60;2.33;;;13.60;99.90;;;;;;5049701;28;20039;-59
2021/12/30 12:55:01;;;;;;;3.17;2.30;;;13.60;99.90;;;;;;5068477;28;20043;-63
2021/12/30 12:57:45;;;;;;;5.07;2.40;;;13.70;99.90;;;;;;5054746;28;20095;-58
2021/12/30 13:00:30;;;;;;;;;;;13.70;99.90;;;;;;5055353;28;20309;-60
2021/12/30 13:03:17;;;;;;;3.22;2.15;;;13.70;99.90;;;;;;5035009;28;19920;-60
2021/12/30 13:06:05;;;;;;;4.15;2.20;;;13.80;99.90;;;;;;5037320;28;20062;-60
2021/12/30 13:08:52;;;;;;;3.67;2.10;;;13.80;99.90;;;;;;5055313;28;20044;-60
2021/12/30 13:11:42;;;;;;;4.80;2.60;;;13.90;99.90;;;;;;5055147;28;20519;-60
2021/12/30 13:14:32;;;;;;;3.33;2.53;;;14.00;99.90;;;;;;5039512;28;20048;-58
2021/12/30 13:17:17;;;;;;;3.40;2.40;;;14.00;99.90;;;;;;5054249;28;20048;-60
2021/12/30 13:20:01;;;;;;;3.17;2.30;;;14.00;99.90;;;;;;5054367;28;20091;-57
2021/12/30 13:22:46;;;;;;;3.20;2.05;;;14.00;99.90;;;;;;5053093;28;20420;-62
2021/12/30 13:25:30;;;;;;;2.72;2.30;;;14.00;99.90;;;;;;5054139;28;20035;-59
2021/12/30 13:28:14;;;;;;;3.85;2.50;;;14.00;99.90;;;;;;5053996;28;20071;-58
2021/12/30 13:31:24;;;;;;;2.47;2.20;;;14.00;99.90;;;;;;5054523;28;20047;-59
2021/12/30 13:34:08;;;;;;;2.47;2.05;;;14.10;99.90;;;;;;5053533;28;20048;-61
2021/12/30 13:37:06;;;;;;;3.43;2.27;;;14.00;99.90;;;;;;5053068;28;20119;-60
2021/12/30 13:39:54;;;;;;;2.55;2.10;;;14.10;99.90;;;;;;5053229;28;20279;-64
2021/12/30 13:42:48;;;;;;;2.13;1.90;;;14.20;99.90;;;;;;5052778;28;20040;-58
2021/12/30 13:45:36;;;;;;;3.42;1.60;;;14.40;99.90;;;;;;5053292;28;20083;-59
2021/12/30 13:48:22;;;;;;;2.40;2.15;;;14.40;99.90;;;;;;5053940;28;20534;-60
2021/12/30 13:51:21;;;;;;;2.88;1.80;;;14.40;99.90;;;;;;5054085;28;20611;-60
2021/12/30 13:54:09;;;;;;;2.25;1.83;;;14.50;99.90;;;;;;5035549;28;20040;-60
2021/12/30 13:56:53;;;;;;;3.17;2.20;;;14.50;99.90;;;;;;5053835;28;20091;-58
2021/12/30 13:59:42;;;;;;;2.60;2.03;;;14.50;99.90;;;;;;5054155;28;20260;-60
2021/12/30 14:02:29;;;;;;;2.10;1.90;;;14.50;99.90;;;;;;5038850;28;20667;-59
2021/12/30 14:05:14;;;;;;;2.17;1.77;;;14.60;99.90;;;;;;5053089;28;20407;-60
2021/12/30 14:08:04;;;;;;;3.67;1.92;;;14.60;99.90;;;;;;5054218;28;20055;-61
2021/12/30 14:11:00;;;;;;;2.33;1.90;;;14.50;99.90;;;;;;5054617;28;20600;-58
2021/12/30 14:13:47;;;;;;;2.38;1.95;;;14.50;99.90;;;;;;5033994;28;20409;-60
2021/12/30 14:16:55;;;;;;;1.95;1.83;;;14.60;99.90;;;;;;5039561;28;20509;-62
2021/12/30 14:19:42;;;;;;;2.47;2.08;;;14.50;99.90;;;;;;5053314;28;20412;-61
2021/12/30 14:22:33;;;;;;;2.83;2.60;;;14.50;99.90;;;;;;5052861;28;20087;-59